Terminal Aerodrome Forecast
Issued by NWS

Home | Current Version | Previous Version | Text Only | Print | Product List | Glossary On
Versions: 1 2 3 4 5 6 7 8 9 10 11 12 13 14 15 16 17 18 19
000
FTUS41 KBTV 232300
TAFMSS
TAF
KMSS 232324Z 2400/2424 33009KT P6SM BKN040 OVC070
     FM240200 02005KT P6SM SCT025 BKN050
     FM241300 34010KT P6SM SCT060
     FM241800 32007KT P6SM FEW050=

USA.gov is the U.S. government's official web portal to all federal, state and local government web resources and services.